createdAt,value
2023-04-01T00:00:13.218Z,9.83
2023-04-01T00:02:39.858Z,9.81
2023-04-01T00:05:08.356Z,9.87
2023-04-01T00:07:34.914Z,9.84
2023-04-01T00:10:01.579Z,9.82
2023-04-01T00:12:28.083Z,9.79
2023-04-01T00:14:57.332Z,9.76
2023-04-01T00:17:23.878Z,9.76
2023-04-01T00:19:59.868Z,9.79
2023-04-01T00:22:27.295Z,9.77
2023-04-01T00:24:57.234Z,9.74
2023-04-01T00:27:23.764Z,9.73
2023-04-01T00:29:53.078Z,9.71
2023-04-01T00:32:19.583Z,9.75
2023-04-01T00:34:46.939Z,9.73
2023-04-01T00:37:13.448Z,9.72
2023-04-01T00:39:43.185Z,9.71
2023-04-01T00:42:14.879Z,9.67
2023-04-01T00:44:42.140Z,9.66
2023-04-01T00:47:12.014Z,9.71
2023-04-01T00:49:44.963Z,9.74
2023-04-01T00:52:19.931Z,9.71
2023-04-01T00:54:51.059Z,9.67
2023-04-01T00:57:31.779Z,9.70
2023-04-01T00:59:58.986Z,9.67
2023-04-01T01:02:26.089Z,9.66
2023-04-01T01:04:52.967Z,9.65
2023-04-01T01:07:41.739Z,9.65
2023-04-01T01:10:11.147Z,9.64
2023-04-01T01:12:49.890Z,9.58
2023-04-01T01:15:23.059Z,9.59
2023-04-01T01:18:26.570Z,9.58
2023-04-01T01:21:30.400Z,9.58
2023-04-01T01:24:12.257Z,9.57
2023-04-01T01:26:55.591Z,9.62
2023-04-01T01:29:50.181Z,9.62
2023-04-01T01:32:22.904Z,9.63
2023-04-01T01:35:14.326Z,9.61
2023-04-01T01:37:42.913Z,9.65
2023-04-01T01:40:12.639Z,9.67
2023-04-01T01:42:44.209Z,9.69
2023-04-01T01:45:13.402Z,9.67
2023-04-01T01:47:42.337Z,9.67
2023-04-01T01:50:10.256Z,9.71
2023-04-01T01:52:36.744Z,9.70
2023-04-01T01:55:04.082Z,9.71
2023-04-01T01:57:34.809Z,9.70
2023-04-01T02:00:15.721Z,9.72
2023-04-01T02:02:45.035Z,9.72
2023-04-01T02:05:20.617Z,9.69
2023-04-01T02:07:55.016Z,9.71
2023-04-01T02:10:25.517Z,9.73
2023-04-01T02:12:54.613Z,9.71
2023-04-01T02:15:22.921Z,9.66
2023-04-01T02:17:55.115Z,9.63
2023-04-01T02:20:24.490Z,9.63
2023-04-01T02:22:54.057Z,9.61
2023-04-01T02:25:29.041Z,9.63
2023-04-01T02:27:59.065Z,9.66
2023-04-01T02:30:28.316Z,9.67
2023-04-01T02:32:57.752Z,9.69
2023-04-01T02:35:25.885Z,9.71
2023-04-01T02:37:54.761Z,9.75
2023-04-01T02:40:21.878Z,9.74
2023-04-01T02:42:48.468Z,9.71
2023-04-01T02:45:15.602Z,9.68
2023-04-01T02:47:42.100Z,9.65
2023-04-01T02:50:10.016Z,9.66
2023-04-01T02:52:39.804Z,9.64
2023-04-01T02:55:10.305Z,9.64
2023-04-01T02:57:36.786Z,9.65
2023-04-01T03:00:03.835Z,9.70
2023-04-01T03:02:30.411Z,9.68
2023-04-01T03:04:56.967Z,9.68
2023-04-01T03:07:23.418Z,9.67
2023-04-01T03:09:50.029Z,9.66
2023-04-01T03:12:16.508Z,9.65
2023-04-01T03:14:42.982Z,9.63
2023-04-01T03:17:09.417Z,9.60
2023-04-01T03:19:36.040Z,9.59
2023-04-01T03:22:02.549Z,9.59
2023-04-01T03:24:29.025Z,9.59
2023-04-01T03:26:55.908Z,9.57
2023-04-01T03:29:22.435Z,9.56
2023-04-01T03:31:48.867Z,9.54
2023-04-01T03:34:15.589Z,9.54
2023-04-01T03:36:42.150Z,9.54
2023-04-01T03:39:08.629Z,9.54
2023-04-01T03:41:38.324Z,9.53
2023-04-01T03:44:05.135Z,9.53
2023-04-01T03:46:31.678Z,9.55
2023-04-01T03:48:58.248Z,9.57
2023-04-01T03:51:24.750Z,9.54
2023-04-01T03:53:51.301Z,9.56
2023-04-01T03:56:18.052Z,9.55
2023-04-01T03:58:44.545Z,9.54
2023-04-01T04:01:19.776Z,9.53
2023-04-01T04:03:46.927Z,9.53
2023-04-01T04:06:18.569Z,9.53
2023-04-01T04:08:45.482Z,9.53
2023-04-01T04:11:12.230Z,9.51
2023-04-01T04:13:38.959Z,9.52
2023-04-01T04:16:05.971Z,9.53
2023-04-01T04:18:32.564Z,9.49
2023-04-01T04:20:59.066Z,9.52
2023-04-01T04:23:25.741Z,9.48
2023-04-01T04:26:00.218Z,9.47
2023-04-01T04:28:27.541Z,9.49
2023-04-01T04:30:55.633Z,9.51
2023-04-01T04:33:23.138Z,9.53
2023-04-01T04:35:50.535Z,9.53
2023-04-01T04:38:17.871Z,9.53
2023-04-01T04:40:45.447Z,9.52
2023-04-01T04:43:13.030Z,9.57
2023-04-01T04:45:39.621Z,9.56
2023-04-01T04:48:10.732Z,9.55
2023-04-01T04:50:37.350Z,9.54
2023-04-01T04:53:04.340Z,9.55
2023-04-01T04:55:31.189Z,9.56
2023-04-01T04:57:58.069Z,9.56
2023-04-01T05:00:24.595Z,9.52
2023-04-01T05:02:51.231Z,9.53
2023-04-01T05:05:17.872Z,9.51
2023-04-01T05:07:44.566Z,9.49
2023-04-01T05:10:11.316Z,9.48
2023-04-01T05:12:39.733Z,9.46
2023-04-01T05:15:10.306Z,9.46
2023-04-01T05:17:36.916Z,9.46
2023-04-01T05:20:04.158Z,9.47
2023-04-01T05:22:31.006Z,9.47
2023-04-01T05:24:57.538Z,9.48
2023-04-01T05:27:24.052Z,9.46
2023-04-01T05:29:50.563Z,9.51
2023-04-01T05:32:17.264Z,9.51
2023-04-01T05:34:43.925Z,9.54
2023-04-01T05:37:10.721Z,9.55
2023-04-01T05:39:40.190Z,9.54
2023-04-01T05:42:08.222Z,9.55
2023-04-01T05:44:35.058Z,9.58
2023-04-01T05:47:02.532Z,9.58
2023-04-01T05:49:29.354Z,9.56
2023-04-01T05:51:55.930Z,9.58
2023-04-01T05:54:22.803Z,9.60
2023-04-01T05:56:49.368Z,9.62
2023-04-01T05:59:16.103Z,9.65
2023-04-01T06:01:42.672Z,9.65
2023-04-01T06:04:17.887Z,9.68
2023-04-01T06:06:45.422Z,9.68
2023-04-01T06:09:20.430Z,9.70
2023-04-01T06:11:49.742Z,9.72
2023-04-01T06:15:08.827Z,9.75
2023-04-01T06:18:19.725Z,9.81
2023-04-01T06:21:13.663Z,9.84
2023-04-01T06:23:58.688Z,9.88
2023-04-01T06:26:34.275Z,9.90
2023-04-01T06:29:29.188Z,9.95
2023-04-01T06:32:06.450Z,9.98
2023-04-01T06:35:09.708Z,10.03
2023-04-01T06:37:48.074Z,10.03
2023-04-01T06:40:23.818Z,10.04
2023-04-01T06:43:10.872Z,10.05
2023-04-01T06:46:15.981Z,10.07
2023-04-01T06:49:04.389Z,10.07
2023-04-01T06:52:03.623Z,10.13
2023-04-01T06:54:34.931Z,10.19
2023-04-01T06:57:36.676Z,10.25
2023-04-01T07:00:13.032Z,10.32
2023-04-01T07:03:01.057Z,10.36
2023-04-01T07:05:32.274Z,10.37
2023-04-01T07:08:02.433Z,10.39
2023-04-01T07:11:09.827Z,10.43
2023-04-01T07:13:55.676Z,10.43
2023-04-01T07:16:32.111Z,10.45
2023-04-01T07:19:23.353Z,10.48
2023-04-01T07:21:57.881Z,10.50
2023-04-01T07:24:41.646Z,10.50
2023-04-01T07:27:13.296Z,10.54
2023-04-01T07:29:40.456Z,10.57
2023-04-01T07:32:19.104Z,10.55
2023-04-01T07:35:15.477Z,10.53
2023-04-01T07:38:00.894Z,10.56
2023-04-01T07:40:42.259Z,10.58
2023-04-01T07:43:17.855Z,10.60
2023-04-01T07:45:53.347Z,10.60
2023-04-01T07:48:34.956Z,10.60
2023-04-01T07:51:01.387Z,10.57
2023-04-01T07:53:48.142Z,10.58
2023-04-01T07:56:31.045Z,10.64
2023-04-01T07:59:09.309Z,10.69
2023-04-01T08:02:08.658Z,10.71
2023-04-01T08:05:12.214Z,10.73
2023-04-01T08:07:55.768Z,10.77
2023-04-01T08:10:38.668Z,10.76
2023-04-01T08:13:16.044Z,10.81
2023-04-01T08:16:00.388Z,10.84
2023-04-01T08:18:53.214Z,10.92
2023-04-01T08:21:28.962Z,10.93
2023-04-01T08:24:05.330Z,10.96
2023-04-01T08:26:46.015Z,11.01
2023-04-01T08:29:32.014Z,11.05
2023-04-01T08:32:03.179Z,11.11
2023-04-01T08:34:41.780Z,11.16
2023-04-01T08:37:20.254Z,11.20
2023-04-01T08:39:56.997Z,11.14
2023-04-01T08:42:51.321Z,11.10
2023-04-01T08:45:32.412Z,11.07
2023-04-01T08:48:22.066Z,11.06
2023-04-01T08:51:23.280Z,11.10
2023-04-01T08:54:30.540Z,11.07
2023-04-01T08:57:18.612Z,11.09
2023-04-01T09:00:02.755Z,11.08
2023-04-01T09:02:56.773Z,11.12
2023-04-01T09:05:36.522Z,11.14
2023-04-01T09:08:21.535Z,11.22
2023-04-01T09:11:06.969Z,11.22
2023-04-01T09:13:33.393Z,11.23
2023-04-01T09:16:18.377Z,11.20
2023-04-01T09:19:06.228Z,11.26
2023-04-01T09:21:47.702Z,11.31
2023-04-01T09:24:30.390Z,11.36
2023-04-01T09:27:09.321Z,11.41
2023-04-01T09:30:03.657Z,11.42
2023-04-01T09:32:43.356Z,11.42
2023-04-01T09:35:47.012Z,11.49
2023-04-01T09:38:23.757Z,11.54
2023-04-01T09:41:04.226Z,11.52
2023-04-01T09:44:12.127Z,11.47
2023-04-01T09:47:08.120Z,11.48
2023-04-01T09:49:40.986Z,11.55
2023-04-01T09:52:26.151Z,11.57
2023-04-01T09:55:17.541Z,11.63
2023-04-01T09:58:25.564Z,11.64
2023-04-01T10:01:09.670Z,11.68
2023-04-01T10:04:08.001Z,11.73
2023-04-01T10:06:59.778Z,11.75
2023-04-01T10:10:07.632Z,11.80
2023-04-01T10:12:54.373Z,11.80
2023-04-01T10:15:35.824Z,11.80
2023-04-01T10:18:04.328Z,11.85
2023-04-01T10:20:36.632Z,11.80
2023-04-01T10:23:26.140Z,11.79
2023-04-01T10:25:53.048Z,11.84
2023-04-01T10:28:31.531Z,11.87
2023-04-01T10:31:22.761Z,11.89
2023-04-01T10:34:10.343Z,12.00
2023-04-01T10:36:52.211Z,12.09
2023-04-01T10:39:54.244Z,12.16
2023-04-01T10:42:41.724Z,12.17
2023-04-01T10:45:22.638Z,12.15
2023-04-01T10:48:28.925Z,12.20
2023-04-01T10:51:17.296Z,12.26
2023-04-01T10:54:05.300Z,12.38
2023-04-01T10:56:34.823Z,12.46
2023-04-01T10:59:07.396Z,12.43
2023-04-01T11:01:39.834Z,12.42
2023-04-01T11:04:43.725Z,12.42
2023-04-01T11:07:59.345Z,12.35
2023-04-01T11:10:53.069Z,12.29
2023-04-01T11:13:48.592Z,12.00
2023-04-01T11:16:32.974Z,11.95
2023-04-01T11:19:10.900Z,11.93
2023-04-01T11:22:14.527Z,11.93
2023-04-01T11:24:59.482Z,11.92
2023-04-01T11:27:56.891Z,11.94
2023-04-01T11:30:40.632Z,11.97
2023-04-01T11:33:51.414Z,12.09
2023-04-01T11:36:40.921Z,12.18
2023-04-01T11:39:22.444Z,12.25
2023-04-01T11:42:19.782Z,12.37
2023-04-01T11:45:02.945Z,12.42
2023-04-01T11:47:58.010Z,12.49
2023-04-01T11:50:39.494Z,12.52
2023-04-01T11:53:18.530Z,12.48
2023-04-01T11:56:24.081Z,12.42
2023-04-01T11:59:16.737Z,12.53
2023-04-01T12:02:05.112Z,12.56
2023-04-01T12:05:01.893Z,12.57
2023-04-01T12:08:16.554Z,12.58
2023-04-01T12:11:02.705Z,12.57
2023-04-01T12:13:40.440Z,12.59
2023-04-01T12:16:38.723Z,12.51
2023-04-01T12:19:18.771Z,12.47
2023-04-01T12:22:03.908Z,12.38
2023-04-01T12:24:48.995Z,12.30
2023-04-01T12:27:29.448Z,12.26
2023-04-01T12:30:27.076Z,12.22
2023-04-01T12:33:27.951Z,12.23
2023-04-01T12:36:09.800Z,12.18
2023-04-01T12:38:46.440Z,12.06
2023-04-01T12:41:25.540Z,11.97
2023-04-01T12:44:16.911Z,12.00
2023-04-01T12:46:59.712Z,11.87
2023-04-01T12:49:47.038Z,11.80
2023-04-01T12:52:34.122Z,11.77
2023-04-01T12:55:28.784Z,11.75
2023-04-01T12:58:13.532Z,11.75
2023-04-01T13:00:46.440Z,11.79
2023-04-01T13:03:54.023Z,11.81
2023-04-01T13:06:30.567Z,11.84
2023-04-01T13:09:03.389Z,11.87
2023-04-01T13:11:48.770Z,11.89
2023-04-01T13:14:51.690Z,11.89
2023-04-01T13:17:34.209Z,11.88
2023-04-01T13:20:37.575Z,11.81
2023-04-01T13:23:23.707Z,11.91
2023-04-01T13:26:15.316Z,11.86
2023-04-01T13:29:00.838Z,11.92
2023-04-01T13:31:36.211Z,11.97
2023-04-01T13:34:33.378Z,11.98
2023-04-01T13:37:35.635Z,11.92
2023-04-01T13:40:14.611Z,11.89
2023-04-01T13:43:00.772Z,11.93
2023-04-01T13:45:45.230Z,11.96
2023-04-01T13:48:33.353Z,11.98
2023-04-01T13:51:02.905Z,12.00
2023-04-01T13:53:53.727Z,11.97
2023-04-01T13:56:47.038Z,11.91
2023-04-01T13:59:37.734Z,11.83
2023-04-01T14:02:15.014Z,11.85
2023-04-01T14:05:00.096Z,11.91
2023-04-01T14:08:06.469Z,11.91
2023-04-01T14:10:38.528Z,11.88
2023-04-01T14:13:23.401Z,11.86
2023-04-01T14:16:04.999Z,11.77
2023-04-01T14:18:55.996Z,11.71
2023-04-01T14:21:38.406Z,11.58
2023-04-01T14:24:20.279Z,11.59
2023-04-01T14:26:55.863Z,11.63
2023-04-01T14:29:32.178Z,11.51
2023-04-01T14:32:28.453Z,11.49
2023-04-01T14:35:25.924Z,11.39
2023-04-01T14:38:19.234Z,11.40
2023-04-01T14:40:54.772Z,11.27
2023-04-01T14:43:47.551Z,11.29
2023-04-01T14:46:32.817Z,11.30
2023-04-01T14:49:14.605Z,11.11
2023-04-01T14:51:42.051Z,11.08
2023-04-01T14:54:23.929Z,11.09
2023-04-01T14:57:02.487Z,11.12
2023-04-01T14:59:30.532Z,11.04
2023-04-01T15:02:17.370Z,11.01
2023-04-01T15:05:06.239Z,11.01
2023-04-01T15:08:01.608Z,11.00
2023-04-01T15:10:34.435Z,11.06
2023-04-01T15:13:21.157Z,11.02
2023-04-01T15:16:05.937Z,10.98
2023-04-01T15:18:54.292Z,11.00
2023-04-01T15:21:49.986Z,10.97
2023-04-01T15:24:36.892Z,10.93
2023-04-01T15:27:13.843Z,10.90
2023-04-01T15:30:01.896Z,10.86
2023-04-01T15:32:45.376Z,10.78
2023-04-01T15:35:43.250Z,10.82
2023-04-01T15:38:27.262Z,10.77
2023-04-01T15:41:18.054Z,10.77
2023-04-01T15:43:49.865Z,10.73
2023-04-01T15:46:42.414Z,10.72
2023-04-01T15:49:28.291Z,10.74
2023-04-01T15:52:08.887Z,10.73
2023-04-01T15:54:53.381Z,10.76
2023-04-01T15:57:32.046Z,10.81
2023-04-01T16:00:09.686Z,10.79
2023-04-01T16:02:47.801Z,10.70
2023-04-01T16:05:27.384Z,10.73
2023-04-01T16:08:11.894Z,10.74
2023-04-01T16:10:51.569Z,10.69
2023-04-01T16:13:48.898Z,10.73
2023-04-01T16:16:31.398Z,10.74
2023-04-01T16:19:23.469Z,10.65
2023-04-01T16:22:02.569Z,10.63
2023-04-01T16:24:56.722Z,10.62
2023-04-01T16:27:23.168Z,10.62
2023-04-01T16:29:52.274Z,10.59
2023-04-01T16:32:45.682Z,10.54
2023-04-01T16:35:23.838Z,10.47
2023-04-01T16:38:12.123Z,10.34
2023-04-01T16:41:01.853Z,10.26
2023-04-01T16:43:47.627Z,10.13
2023-04-01T16:46:42.532Z,10.20
2023-04-01T16:49:11.984Z,10.07
2023-04-01T16:52:06.938Z,10.07
2023-04-01T16:54:55.496Z,9.95
2023-04-01T16:57:47.469Z,9.75
2023-04-01T17:00:34.327Z,9.60
2023-04-01T17:03:24.878Z,9.46
2023-04-01T17:06:14.002Z,9.41
2023-04-01T17:08:46.478Z,9.31
2023-04-01T17:11:23.808Z,9.18
2023-04-01T17:14:08.958Z,9.19
2023-04-01T17:16:57.908Z,9.16
2023-04-01T17:19:33.354Z,9.10
2023-04-01T17:22:15.409Z,8.96
2023-04-01T17:25:04.993Z,9.01
2023-04-01T17:27:53.070Z,8.96
2023-04-01T17:30:30.150Z,8.92
2023-04-01T17:33:21.356Z,8.80
2023-04-01T17:35:56.640Z,8.62
2023-04-01T17:38:27.404Z,8.68
2023-04-01T17:41:13.958Z,8.56
2023-04-01T17:43:53.741Z,8.59
2023-04-01T17:46:34.883Z,8.46
2023-04-01T17:49:13.072Z,8.43
2023-04-01T17:51:49.628Z,8.28
2023-04-01T17:54:18.755Z,8.31
2023-04-01T17:57:22.912Z,8.23
2023-04-01T18:00:04.504Z,8.11
2023-04-01T18:03:15.683Z,8.19
2023-04-01T18:06:02.930Z,8.10
2023-04-01T18:08:41.488Z,8.08
2023-04-01T18:11:17.155Z,8.00
2023-04-01T18:14:40.643Z,8.07
2023-04-01T18:17:25.822Z,7.92
2023-04-01T18:20:16.283Z,7.88
2023-04-01T18:22:58.157Z,7.75
2023-04-01T18:25:42.868Z,7.75
2023-04-01T18:28:36.188Z,7.84
2023-04-01T18:31:02.672Z,7.82
2023-04-01T18:33:48.663Z,7.86
2023-04-01T18:36:25.796Z,7.88
2023-04-01T18:39:11.541Z,7.80
2023-04-01T18:42:09.416Z,7.74
2023-04-01T18:44:55.146Z,7.61
2023-04-01T18:47:24.633Z,7.58
2023-04-01T18:49:57.272Z,7.61
2023-04-01T18:52:41.939Z,7.51
2023-04-01T18:55:08.745Z,7.41
2023-04-01T18:57:54.008Z,7.46
2023-04-01T19:00:33.314Z,7.46
2023-04-01T19:03:32.326Z,7.39
2023-04-01T19:06:09.190Z,7.43
2023-04-01T19:08:40.670Z,7.40
2023-04-01T19:11:11.571Z,7.31
2023-04-01T19:13:58.600Z,7.29
2023-04-01T19:16:44.932Z,7.22
2023-04-01T19:19:22.032Z,7.16
2023-04-01T19:22:32.778Z,7.18
2023-04-01T19:25:16.471Z,7.13
2023-04-01T19:27:52.713Z,7.12
2023-04-01T19:30:19.164Z,7.12
2023-04-01T19:33:16.755Z,6.99
2023-04-01T19:35:51.926Z,6.90
2023-04-01T19:38:36.593Z,6.97
2023-04-01T19:41:22.968Z,6.88
2023-04-01T19:44:10.134Z,6.87
2023-04-01T19:46:39.778Z,6.87
2023-04-01T19:49:24.698Z,6.89
2023-04-01T19:52:07.371Z,6.88
2023-04-01T19:54:40.348Z,6.81
2023-04-01T19:57:39.335Z,6.85
2023-04-01T20:00:09.004Z,6.88
2023-04-01T20:02:57.333Z,6.80
2023-04-01T20:05:45.667Z,6.79
2023-04-01T20:08:20.650Z,6.78
2023-04-01T20:11:02.654Z,6.52
2023-04-01T20:13:38.225Z,6.53
2023-04-01T20:16:08.466Z,6.45
2023-04-01T20:18:40.683Z,6.50
2023-04-01T20:21:16.318Z,6.53
2023-04-01T20:23:47.586Z,6.49
2023-04-01T20:26:15.707Z,6.57
2023-04-01T20:29:16.040Z,6.41
2023-04-01T20:31:46.403Z,6.35
2023-04-01T20:34:31.945Z,6.30
2023-04-01T20:37:33.558Z,6.30
2023-04-01T20:40:28.240Z,6.20
2023-04-01T20:43:26.223Z,6.30
2023-04-01T20:46:28.283Z,6.23
2023-04-01T20:49:20.384Z,6.29
2023-04-01T20:51:59.062Z,6.15
2023-04-01T20:54:56.965Z,6.12
2023-04-01T20:57:50.545Z,6.08
2023-04-01T21:00:32.294Z,5.91
2023-04-01T21:03:31.412Z,5.79
2023-04-01T21:06:21.860Z,5.95
2023-04-01T21:09:12.352Z,5.80
2023-04-01T21:11:57.127Z,5.75
2023-04-01T21:14:45.033Z,5.71
2023-04-01T21:17:49.625Z,5.75
2023-04-01T21:20:48.245Z,5.77
2023-04-01T21:23:30.569Z,5.73
2023-04-01T21:26:33.725Z,5.71
2023-04-01T21:29:40.367Z,5.73
2023-04-01T21:32:28.985Z,5.67
2023-04-01T21:35:04.628Z,5.62
2023-04-01T21:37:58.948Z,5.62
2023-04-01T21:40:31.294Z,5.65
2023-04-01T21:43:18.973Z,5.63
2023-04-01T21:46:19.313Z,5.49
2023-04-01T21:48:59.534Z,5.53
2023-04-01T21:51:59.880Z,5.45
2023-04-01T21:54:50.490Z,5.46
2023-04-01T21:57:37.096Z,5.30
2023-04-01T22:00:17.197Z,5.33
2023-04-01T22:03:10.293Z,5.32
2023-04-01T22:06:12.878Z,5.29
2023-04-01T22:08:54.311Z,5.20
2023-04-01T22:11:50.322Z,5.27
2023-04-01T22:14:29.321Z,5.17
2023-04-01T22:17:14.698Z,5.31
2023-04-01T22:19:57.024Z,5.23
2023-04-01T22:22:26.472Z,5.22
2023-04-01T22:25:08.573Z,5.25
2023-04-01T22:27:39.118Z,5.17
2023-04-01T22:30:25.296Z,5.07
2023-04-01T22:32:56.872Z,5.08
2023-04-01T22:35:58.767Z,5.03
2023-04-01T22:38:46.705Z,5.04
2023-04-01T22:41:49.191Z,4.86
2023-04-01T22:44:37.838Z,4.87
2023-04-01T22:47:22.737Z,4.90
2023-04-01T22:49:58.969Z,4.79
2023-04-01T22:52:45.796Z,4.73
2023-04-01T22:55:39.993Z,4.83
2023-04-01T22:58:31.799Z,4.86
2023-04-01T23:01:33.474Z,4.75
2023-04-01T23:04:04.585Z,4.82
2023-04-01T23:06:42.310Z,4.80
2023-04-01T23:09:17.757Z,4.75
2023-04-01T23:11:59.181Z,4.75
2023-04-01T23:14:48.591Z,4.68
2023-04-01T23:17:25.929Z,4.53
2023-04-01T23:20:06.871Z,4.66
2023-04-01T23:22:55.556Z,4.56
2023-04-01T23:25:22.052Z,4.59
2023-04-01T23:27:48.494Z,4.58
2023-04-01T23:30:45.004Z,4.44
2023-04-01T23:33:20.886Z,4.48
2023-04-01T23:35:57.608Z,4.56
2023-04-01T23:38:27.017Z,4.46
2023-04-01T23:40:56.035Z,4.42
2023-04-01T23:43:41.414Z,4.38
2023-04-01T23:46:08.791Z,4.48
2023-04-01T23:48:39.096Z,4.49
2023-04-01T23:51:19.463Z,4.53
2023-04-01T23:53:48.521Z,4.45
2023-04-01T23:56:31.907Z,4.42
2023-04-01T23:59:02.848Z,4.46
